Spanishburg, WV (25922)

7:29 AM EST on December 20, 2014 (GMT -0500)
Oxley Hollow Road | Change Station
CLOSE
Current Station
Personal Weather Station
Location: Princeton, WV
Elevation: 2411 ft
Nearby Weather Stations
Active Advisory: Special Statement

Elev 2411 ft 37.44 °N, 81.03 °W | Updated 1 minute ago

Overcast
Overcast
26.3 °F
Feels Like 26 °F
N
0.0
Wind Variable Wind from North
Gusts 0.0 mph

Today
High -- | Low -- °F
--% Chance of Precip.
Yesterday
High -- | Low -- °F
Precip. -- in
7:34 AM 5:09 PM
Waning Crescent, 3% visible
Pressure 30.15 in
Visibility 2.5 miles
Clouds Few 1700 ft
Scattered Clouds 2200 ft
Overcast 2900 ft
Windchill 26 °F
Dew Point 24 °F
Humidity 89%
Rainfall -999.00 in
Snow Depth Not available.
UV 0 out of 12
Pollen .10 out of 12
Air Quality Not available.
Flu Activity Not available.
SPECI KBLF 201217Z AUTO 00000KT 2 1/2SM -SN FEW017 SCT022 OVC029 M02/M05 A3015 RMK AO2 P0000 T10221050

More Conditions Fewer Conditions

Pressure 30.15 in
Visibility 2.5 miles
Clouds Few 1700 ft
Scattered Clouds 2200 ft
Overcast 2900 ft
Windchill 26 °F
Dew Point 24 °F
Humidity 89%
Rainfall -999.00 in
Snow Depth Not available.
UV 0 out of 12
Pollen .10 out of 12
Air Quality Not available.
Flu Activity Not available.
SPECI KBLF 201217Z AUTO 00000KT 2 1/2SM -SN FEW017 SCT022 OVC029 M02/M05 A3015 RMK AO2 P0000 T10221050

More Conditions Fewer Conditions

10-Day Weather Forecast

Almanac

Astronomy

Dec. 20, 2014 Rise Set
Actual Time
Civil Twilight
Nautical Twilight
Astronomical Twilight
Moon
Length of Visible Light
Length of Day
Tomorrow will be .
, % of the Moon is Illuminated

Today's Extremes

State Highs State Lows

Community

WunderPhotos

Upload Photos

1,779,163 photos uploaded!

WunderBlogs® & News

Nearby

Air Quality

  Air Quality AQ Index Pollutant
Not available.

Snow Depth

Station Depth Elevation

Earthquake Activity

City Distance Mag. Time & Date
Minimum magnitude displayed is 2.5.

Coastal Water Temperatures

Place Temperature

Nearby Weather Stations